sensor_id;sensor_type;location;lat;lon;timestamp;P1;durP1;ratioP1;P2;durP2;ratioP2
66012;SDS011;52783;50.502;8.190;2022-07-15T00:02:12;6.13;;;1.92;;
66012;SDS011;52783;50.502;8.190;2022-07-15T00:04:38;4.05;;;2.08;;
66012;SDS011;52783;50.502;8.190;2022-07-15T00:07:04;4.90;;;1.80;;
66012;SDS011;52783;50.502;8.190;2022-07-15T00:09:31;3.80;;;1.92;;
66012;SDS011;52783;50.502;8.190;2022-07-15T00:12:15;5.03;;;1.67;;
66012;SDS011;52783;50.502;8.190;2022-07-15T00:14:40;3.83;;;1.95;;
66012;SDS011;52783;50.502;8.190;2022-07-15T00:17:06;6.63;;;1.73;;
66012;SDS011;52783;50.502;8.190;2022-07-15T00:19:35;4.60;;;1.92;;
66012;SDS011;52783;50.502;8.190;2022-07-15T00:22:01;6.80;;;2.15;;
66012;SDS011;52783;50.502;8.190;2022-07-15T00:24:27;6.78;;;1.75;;
66012;SDS011;52783;50.502;8.190;2022-07-15T00:26:54;6.88;;;1.80;;
66012;SDS011;52783;50.502;8.190;2022-07-15T00:29:19;2.45;;;1.60;;
66012;SDS011;52783;50.502;8.190;2022-07-15T00:31:45;3.83;;;1.67;;
66012;SDS011;52783;50.502;8.190;2022-07-15T00:34:10;5.35;;;1.67;;
66012;SDS011;52783;50.502;8.190;2022-07-15T00:36:36;3.58;;;1.92;;
66012;SDS011;52783;50.502;8.190;2022-07-15T00:39:02;4.85;;;1.88;;
66012;SDS011;52783;50.502;8.190;2022-07-15T00:41:35;2.70;;;1.60;;
66012;SDS011;52783;50.502;8.190;2022-07-15T00:44:04;5.63;;;1.63;;
66012;SDS011;52783;50.502;8.190;2022-07-15T00:46:30;8.80;;;2.20;;
66012;SDS011;52783;50.502;8.190;2022-07-15T00:48:57;3.67;;;1.60;;
66012;SDS011;52783;50.502;8.190;2022-07-15T00:51:23;5.38;;;1.92;;
66012;SDS011;52783;50.502;8.190;2022-07-15T00:53:48;7.43;;;1.80;;
66012;SDS011;52783;50.502;8.190;2022-07-15T00:56:16;3.35;;;1.80;;
66012;SDS011;52783;50.502;8.190;2022-07-15T00:58:44;2.72;;;1.58;;
66012;SDS011;52783;50.502;8.190;2022-07-15T01:01:12;2.88;;;1.50;;
66012;SDS011;52783;50.502;8.190;2022-07-15T01:03:39;3.20;;;1.63;;
66012;SDS011;52783;50.502;8.190;2022-07-15T01:06:06;3.05;;;1.50;;
66012;SDS011;52783;50.502;8.190;2022-07-15T01:08:31;6.20;;;2.00;;
66012;SDS011;52783;50.502;8.190;2022-07-15T01:10:57;4.80;;;2.17;;
66012;SDS011;52783;50.502;8.190;2022-07-15T01:13:22;3.80;;;1.48;;
66012;SDS011;52783;50.502;8.190;2022-07-15T01:15:48;1.88;;;1.75;;
66012;SDS011;52783;50.502;8.190;2022-07-15T01:18:14;4.25;;;1.40;;
66012;SDS011;52783;50.502;8.190;2022-07-15T01:20:41;4.78;;;1.88;;
66012;SDS011;52783;50.502;8.190;2022-07-15T01:23:07;4.00;;;1.60;;
66012;SDS011;52783;50.502;8.190;2022-07-15T01:25:33;3.85;;;1.60;;
66012;SDS011;52783;50.502;8.190;2022-07-15T01:27:59;3.40;;;1.75;;
66012;SDS011;52783;50.502;8.190;2022-07-15T01:30:25;5.13;;;2.00;;
66012;SDS011;52783;50.502;8.190;2022-07-15T01:32:50;5.45;;;1.80;;
66012;SDS011;52783;50.502;8.190;2022-07-15T01:35:16;8.15;;;1.95;;
66012;SDS011;52783;50.502;8.190;2022-07-15T01:37:42;3.60;;;1.73;;
66012;SDS011;52783;50.502;8.190;2022-07-15T01:40:09;3.22;;;1.95;;
66012;SDS011;52783;50.502;8.190;2022-07-15T01:42:35;3.03;;;1.80;;
66012;SDS011;52783;50.502;8.190;2022-07-15T01:45:01;2.40;;;1.58;;
66012;SDS011;52783;50.502;8.190;2022-07-15T01:47:27;4.20;;;1.90;;
66012;SDS011;52783;50.502;8.190;2022-07-15T01:49:52;9.50;;;2.08;;
66012;SDS011;52783;50.502;8.190;2022-07-15T01:52:18;4.53;;;1.50;;
66012;SDS011;52783;50.502;8.190;2022-07-15T01:54:43;2.90;;;1.70;;
66012;SDS011;52783;50.502;8.190;2022-07-15T01:57:09;4.05;;;1.80;;
66012;SDS011;52783;50.502;8.190;2022-07-15T01:59:34;4.63;;;1.83;;
66012;SDS011;52783;50.502;8.190;2022-07-15T02:02:00;2.20;;;1.60;;
66012;SDS011;52783;50.502;8.190;2022-07-15T02:04:26;8.13;;;1.73;;
66012;SDS011;52783;50.502;8.190;2022-07-15T02:06:52;8.05;;;2.05;;
66012;SDS011;52783;50.502;8.190;2022-07-15T02:09:18;6.32;;;1.95;;
66012;SDS011;52783;50.502;8.190;2022-07-15T02:11:44;5.45;;;1.90;;
66012;SDS011;52783;50.502;8.190;2022-07-15T02:14:10;3.55;;;2.00;;
66012;SDS011;52783;50.502;8.190;2022-07-15T02:16:36;4.85;;;1.92;;
66012;SDS011;52783;50.502;8.190;2022-07-15T02:19:02;3.17;;;1.70;;
66012;SDS011;52783;50.502;8.190;2022-07-15T02:21:28;3.40;;;1.38;;
66012;SDS011;52783;50.502;8.190;2022-07-15T02:23:54;4.47;;;1.80;;
66012;SDS011;52783;50.502;8.190;2022-07-15T02:26:22;8.18;;;1.95;;
66012;SDS011;52783;50.502;8.190;2022-07-15T02:28:48;4.45;;;2.00;;
66012;SDS011;52783;50.502;8.190;2022-07-15T02:31:14;8.15;;;1.90;;
66012;SDS011;52783;50.502;8.190;2022-07-15T02:33:40;6.20;;;1.98;;
66012;SDS011;52783;50.502;8.190;2022-07-15T02:36:06;5.95;;;2.45;;
66012;SDS011;52783;50.502;8.190;2022-07-15T02:38:32;2.85;;;1.58;;
66012;SDS011;52783;50.502;8.190;2022-07-15T02:40:58;6.88;;;1.90;;
66012;SDS011;52783;50.502;8.190;2022-07-15T02:43:23;5.32;;;1.90;;
66012;SDS011;52783;50.502;8.190;2022-07-15T02:45:49;4.65;;;1.77;;
66012;SDS011;52783;50.502;8.190;2022-07-15T02:48:14;3.53;;;1.73;;
66012;SDS011;52783;50.502;8.190;2022-07-15T02:50:40;5.40;;;2.25;;
66012;SDS011;52783;50.502;8.190;2022-07-15T02:53:06;4.20;;;1.83;;
66012;SDS011;52783;50.502;8.190;2022-07-15T02:55:32;4.03;;;1.70;;
66012;SDS011;52783;50.502;8.190;2022-07-15T02:57:58;4.22;;;2.00;;
66012;SDS011;52783;50.502;8.190;2022-07-15T03:00:23;4.35;;;1.80;;
66012;SDS011;52783;50.502;8.190;2022-07-15T03:02:49;8.20;;;2.35;;
66012;SDS011;52783;50.502;8.190;2022-07-15T03:05:15;2.63;;;1.85;;
66012;SDS011;52783;50.502;8.190;2022-07-15T03:07:42;5.75;;;1.98;;
66012;SDS011;52783;50.502;8.190;2022-07-15T03:10:08;4.60;;;1.80;;
66012;SDS011;52783;50.502;8.190;2022-07-15T03:12:36;3.75;;;2.10;;
66012;SDS011;52783;50.502;8.190;2022-07-15T03:15:02;6.68;;;2.35;;
66012;SDS011;52783;50.502;8.190;2022-07-15T03:17:28;5.05;;;1.90;;
66012;SDS011;52783;50.502;8.190;2022-07-15T03:19:54;3.47;;;1.60;;
66012;SDS011;52783;50.502;8.190;2022-07-15T03:22:26;4.07;;;2.00;;
66012;SDS011;52783;50.502;8.190;2022-07-15T03:24:52;2.83;;;1.83;;
66012;SDS011;52783;50.502;8.190;2022-07-15T03:27:18;4.18;;;1.85;;
66012;SDS011;52783;50.502;8.190;2022-07-15T03:29:44;5.15;;;2.20;;
66012;SDS011;52783;50.502;8.190;2022-07-15T03:32:10;10.18;;;2.15;;
66012;SDS011;52783;50.502;8.190;2022-07-15T03:34:36;4.93;;;1.83;;
66012;SDS011;52783;50.502;8.190;2022-07-15T03:37:02;3.90;;;2.03;;
66012;SDS011;52783;50.502;8.190;2022-07-15T03:39:28;4.45;;;2.10;;
66012;SDS011;52783;50.502;8.190;2022-07-15T03:41:53;8.18;;;2.30;;
66012;SDS011;52783;50.502;8.190;2022-07-15T03:44:19;6.97;;;2.00;;
66012;SDS011;52783;50.502;8.190;2022-07-15T03:46:45;5.90;;;1.88;;
66012;SDS011;52783;50.502;8.190;2022-07-15T03:49:11;4.82;;;1.90;;
66012;SDS011;52783;50.502;8.190;2022-07-15T03:51:38;3.00;;;1.92;;
66012;SDS011;52783;50.502;8.190;2022-07-15T03:54:04;6.47;;;1.85;;
66012;SDS011;52783;50.502;8.190;2022-07-15T03:56:29;7.47;;;2.15;;
66012;SDS011;52783;50.502;8.190;2022-07-15T03:58:56;4.50;;;2.28;;
66012;SDS011;52783;50.502;8.190;2022-07-15T04:01:22;3.53;;;2.00;;
66012;SDS011;52783;50.502;8.190;2022-07-15T04:03:48;6.53;;;2.20;;
66012;SDS011;52783;50.502;8.190;2022-07-15T04:06:15;5.72;;;2.22;;
66012;SDS011;52783;50.502;8.190;2022-07-15T04:08:41;8.38;;;2.10;;
66012;SDS011;52783;50.502;8.190;2022-07-15T04:11:07;8.27;;;1.92;;
66012;SDS011;52783;50.502;8.190;2022-07-15T04:13:34;5.65;;;2.28;;
66012;SDS011;52783;50.502;8.190;2022-07-15T04:15:59;5.57;;;2.20;;
66012;SDS011;52783;50.502;8.190;2022-07-15T04:18:25;6.50;;;2.70;;
66012;SDS011;52783;50.502;8.190;2022-07-15T04:20:51;4.22;;;2.00;;
66012;SDS011;52783;50.502;8.190;2022-07-15T04:23:16;5.22;;;2.03;;
66012;SDS011;52783;50.502;8.190;2022-07-15T04:25:42;5.78;;;2.20;;
66012;SDS011;52783;50.502;8.190;2022-07-15T04:28:07;6.78;;;2.55;;
66012;SDS011;52783;50.502;8.190;2022-07-15T04:30:33;11.05;;;2.40;;
66012;SDS011;52783;50.502;8.190;2022-07-15T04:32:59;4.65;;;2.28;;
66012;SDS011;52783;50.502;8.190;2022-07-15T04:35:25;3.05;;;2.40;;
66012;SDS011;52783;50.502;8.190;2022-07-15T04:37:51;3.10;;;2.28;;
66012;SDS011;52783;50.502;8.190;2022-07-15T04:40:16;6.32;;;2.50;;
66012;SDS011;52783;50.502;8.190;2022-07-15T04:42:42;4.38;;;2.40;;
66012;SDS011;52783;50.502;8.190;2022-07-15T04:45:08;6.47;;;2.40;;
66012;SDS011;52783;50.502;8.190;2022-07-15T04:47:34;6.80;;;2.33;;
66012;SDS011;52783;50.502;8.190;2022-07-15T04:50:00;6.20;;;2.25;;
66012;SDS011;52783;50.502;8.190;2022-07-15T04:52:44;5.85;;;2.20;;
66012;SDS011;52783;50.502;8.190;2022-07-15T04:55:11;4.80;;;2.10;;
66012;SDS011;52783;50.502;8.190;2022-07-15T04:57:38;7.20;;;2.30;;
66012;SDS011;52783;50.502;8.190;2022-07-15T05:00:04;7.50;;;2.25;;
66012;SDS011;52783;50.502;8.190;2022-07-15T05:02:30;8.95;;;2.30;;
66012;SDS011;52783;50.502;8.190;2022-07-15T05:04:56;2.65;;;2.17;;
66012;SDS011;52783;50.502;8.190;2022-07-15T05:07:23;8.02;;;2.28;;
66012;SDS011;52783;50.502;8.190;2022-07-15T05:09:49;5.43;;;2.50;;
66012;SDS011;52783;50.502;8.190;2022-07-15T05:12:15;6.20;;;2.72;;
66012;SDS011;52783;50.502;8.190;2022-07-15T05:14:40;11.75;;;2.40;;
66012;SDS011;52783;50.502;8.190;2022-07-15T05:17:06;12.90;;;2.72;;
66012;SDS011;52783;50.502;8.190;2022-07-15T05:19:35;12.15;;;2.65;;
66012;SDS011;52783;50.502;8.190;2022-07-15T05:22:00;31.55;;;3.58;;
66012;SDS011;52783;50.502;8.190;2022-07-15T05:24:26;8.43;;;2.17;;
66012;SDS011;52783;50.502;8.190;2022-07-15T05:26:52;5.53;;;2.20;;
66012;SDS011;52783;50.502;8.190;2022-07-15T05:29:17;6.53;;;1.95;;
66012;SDS011;52783;50.502;8.190;2022-07-15T05:31:46;8.75;;;2.47;;
66012;SDS011;52783;50.502;8.190;2022-07-15T05:34:12;33.83;;;4.70;;
66012;SDS011;52783;50.502;8.190;2022-07-15T05:36:38;11.25;;;2.33;;
66012;SDS011;52783;50.502;8.190;2022-07-15T05:39:04;13.15;;;2.20;;
66012;SDS011;52783;50.502;8.190;2022-07-15T05:41:30;19.08;;;2.58;;
66012;SDS011;52783;50.502;8.190;2022-07-15T05:43:57;27.48;;;2.42;;
66012;SDS011;52783;50.502;8.190;2022-07-15T05:46:22;9.07;;;1.90;;
66012;SDS011;52783;50.502;8.190;2022-07-15T05:48:48;14.93;;;2.58;;
66012;SDS011;52783;50.502;8.190;2022-07-15T05:51:14;7.70;;;2.25;;
66012;SDS011;52783;50.502;8.190;2022-07-15T05:53:39;5.93;;;2.40;;
66012;SDS011;52783;50.502;8.190;2022-07-15T05:56:05;8.52;;;2.10;;
66012;SDS011;52783;50.502;8.190;2022-07-15T05:58:31;6.72;;;2.30;;
66012;SDS011;52783;50.502;8.190;2022-07-15T06:00:56;6.90;;;2.25;;
66012;SDS011;52783;50.502;8.190;2022-07-15T06:03:22;6.03;;;2.08;;
66012;SDS011;52783;50.502;8.190;2022-07-15T06:05:48;5.85;;;2.00;;
66012;SDS011;52783;50.502;8.190;2022-07-15T06:08:13;7.57;;;2.40;;
66012;SDS011;52783;50.502;8.190;2022-07-15T06:10:40;7.43;;;2.50;;
66012;SDS011;52783;50.502;8.190;2022-07-15T06:13:06;10.38;;;2.58;;
66012;SDS011;52783;50.502;8.190;2022-07-15T06:15:32;7.95;;;2.25;;
66012;SDS011;52783;50.502;8.190;2022-07-15T06:17:57;19.17;;;2.88;;
66012;SDS011;52783;50.502;8.190;2022-07-15T06:20:23;7.40;;;2.55;;
66012;SDS011;52783;50.502;8.190;2022-07-15T06:22:49;6.10;;;2.22;;
66012;SDS011;52783;50.502;8.190;2022-07-15T06:25:14;9.73;;;2.17;;
66012;SDS011;52783;50.502;8.190;2022-07-15T06:27:40;6.50;;;2.10;;
66012;SDS011;52783;50.502;8.190;2022-07-15T06:30:06;9.93;;;2.60;;
66012;SDS011;52783;50.502;8.190;2022-07-15T06:32:34;9.38;;;2.15;;
66012;SDS011;52783;50.502;8.190;2022-07-15T06:35:00;7.78;;;2.00;;
66012;SDS011;52783;50.502;8.190;2022-07-15T06:37:26;10.20;;;1.85;;
66012;SDS011;52783;50.502;8.190;2022-07-15T06:39:52;8.85;;;2.40;;
66012;SDS011;52783;50.502;8.190;2022-07-15T06:42:19;12.98;;;2.78;;
66012;SDS011;52783;50.502;8.190;2022-07-15T06:44:48;5.15;;;2.22;;
66012;SDS011;52783;50.502;8.190;2022-07-15T06:47:14;6.60;;;2.40;;
66012;SDS011;52783;50.502;8.190;2022-07-15T06:49:39;3.53;;;2.05;;
66012;SDS011;52783;50.502;8.190;2022-07-15T06:52:05;3.90;;;2.03;;
66012;SDS011;52783;50.502;8.190;2022-07-15T06:54:31;12.02;;;2.60;;
66012;SDS011;52783;50.502;8.190;2022-07-15T06:56:59;6.22;;;2.30;;
66012;SDS011;52783;50.502;8.190;2022-07-15T06:59:27;8.63;;;2.35;;
66012;SDS011;52783;50.502;8.190;2022-07-15T07:01:52;8.02;;;2.53;;
66012;SDS011;52783;50.502;8.190;2022-07-15T07:04:18;5.68;;;2.20;;
66012;SDS011;52783;50.502;8.190;2022-07-15T07:06:44;6.35;;;2.30;;
66012;SDS011;52783;50.502;8.190;2022-07-15T07:09:10;7.03;;;2.40;;
66012;SDS011;52783;50.502;8.190;2022-07-15T07:11:36;11.95;;;2.83;;
66012;SDS011;52783;50.502;8.190;2022-07-15T07:14:02;7.85;;;2.45;;
66012;SDS011;52783;50.502;8.190;2022-07-15T07:16:28;6.10;;;2.60;;
66012;SDS011;52783;50.502;8.190;2022-07-15T07:18:53;5.40;;;2.20;;
66012;SDS011;52783;50.502;8.190;2022-07-15T07:21:19;8.55;;;2.85;;
66012;SDS011;52783;50.502;8.190;2022-07-15T07:23:45;4.93;;;2.20;;
66012;SDS011;52783;50.502;8.190;2022-07-15T07:26:12;4.88;;;2.50;;
66012;SDS011;52783;50.502;8.190;2022-07-15T07:28:39;6.57;;;2.53;;
66012;SDS011;52783;50.502;8.190;2022-07-15T07:31:06;8.45;;;2.55;;
66012;SDS011;52783;50.502;8.190;2022-07-15T07:33:32;6.95;;;2.28;;
66012;SDS011;52783;50.502;8.190;2022-07-15T07:35:58;9.18;;;2.35;;
66012;SDS011;52783;50.502;8.190;2022-07-15T07:38:24;5.10;;;2.30;;
66012;SDS011;52783;50.502;8.190;2022-07-15T07:40:49;5.18;;;2.53;;
66012;SDS011;52783;50.502;8.190;2022-07-15T07:43:15;5.13;;;2.15;;
66012;SDS011;52783;50.502;8.190;2022-07-15T07:45:42;7.28;;;2.50;;
66012;SDS011;52783;50.502;8.190;2022-07-15T07:48:08;10.77;;;2.33;;
66012;SDS011;52783;50.502;8.190;2022-07-15T07:50:33;4.40;;;2.05;;
66012;SDS011;52783;50.502;8.190;2022-07-15T07:52:59;8.80;;;2.55;;
66012;SDS011;52783;50.502;8.190;2022-07-15T07:55:25;8.23;;;2.00;;
66012;SDS011;52783;50.502;8.190;2022-07-15T07:57:54;5.10;;;2.08;;
66012;SDS011;52783;50.502;8.190;2022-07-15T08:00:21;8.82;;;2.03;;
66012;SDS011;52783;50.502;8.190;2022-07-15T08:02:48;6.80;;;2.15;;
66012;SDS011;52783;50.502;8.190;2022-07-15T08:05:14;5.95;;;2.05;;
66012;SDS011;52783;50.502;8.190;2022-07-15T08:07:41;4.10;;;2.35;;
66012;SDS011;52783;50.502;8.190;2022-07-15T08:10:06;10.45;;;2.58;;
66012;SDS011;52783;50.502;8.190;2022-07-15T08:12:33;11.23;;;2.13;;
66012;SDS011;52783;50.502;8.190;2022-07-15T08:14:59;6.45;;;1.85;;
66012;SDS011;52783;50.502;8.190;2022-07-15T08:17:24;10.13;;;2.20;;
66012;SDS011;52783;50.502;8.190;2022-07-15T08:19:50;9.93;;;2.45;;
66012;SDS011;52783;50.502;8.190;2022-07-15T08:22:15;9.43;;;2.30;;
66012;SDS011;52783;50.502;8.190;2022-07-15T08:24:41;6.07;;;2.50;;
66012;SDS011;52783;50.502;8.190;2022-07-15T08:27:07;5.35;;;2.50;;
66012;SDS011;52783;50.502;8.190;2022-07-15T08:29:33;5.57;;;2.15;;
66012;SDS011;52783;50.502;8.190;2022-07-15T08:31:59;8.15;;;2.33;;
66012;SDS011;52783;50.502;8.190;2022-07-15T08:34:25;8.18;;;2.65;;
66012;SDS011;52783;50.502;8.190;2022-07-15T08:36:51;9.40;;;2.40;;
66012;SDS011;52783;50.502;8.190;2022-07-15T08:39:17;6.70;;;2.35;;
66012;SDS011;52783;50.502;8.190;2022-07-15T08:41:42;6.05;;;2.17;;
66012;SDS011;52783;50.502;8.190;2022-07-15T08:44:08;4.10;;;2.15;;
66012;SDS011;52783;50.502;8.190;2022-07-15T08:46:34;6.05;;;2.30;;
66012;SDS011;52783;50.502;8.190;2022-07-15T08:49:06;5.13;;;2.50;;
66012;SDS011;52783;50.502;8.190;2022-07-15T08:51:35;4.22;;;2.17;;
66012;SDS011;52783;50.502;8.190;2022-07-15T08:54:04;6.25;;;2.30;;
66012;SDS011;52783;50.502;8.190;2022-07-15T08:56:32;4.63;;;2.03;;
66012;SDS011;52783;50.502;8.190;2022-07-15T08:58:58;4.30;;;1.90;;
66012;SDS011;52783;50.502;8.190;2022-07-15T09:01:26;3.75;;;1.85;;
66012;SDS011;52783;50.502;8.190;2022-07-15T09:03:53;5.55;;;2.35;;
66012;SDS011;52783;50.502;8.190;2022-07-15T09:06:29;4.10;;;2.03;;
66012;SDS011;52783;50.502;8.190;2022-07-15T09:08:56;6.90;;;2.00;;
66012;SDS011;52783;50.502;8.190;2022-07-15T09:11:27;4.20;;;1.67;;
66012;SDS011;52783;50.502;8.190;2022-07-15T09:13:53;4.80;;;1.58;;
66012;SDS011;52783;50.502;8.190;2022-07-15T09:16:19;6.30;;;2.10;;
66012;SDS011;52783;50.502;8.190;2022-07-15T09:18:46;4.78;;;1.80;;
66012;SDS011;52783;50.502;8.190;2022-07-15T09:21:17;3.70;;;1.65;;
66012;SDS011;52783;50.502;8.190;2022-07-15T09:23:48;4.15;;;1.70;;
66012;SDS011;52783;50.502;8.190;2022-07-15T09:26:31;4.72;;;1.73;;
66012;SDS011;52783;50.502;8.190;2022-07-15T09:28:59;5.60;;;2.03;;
66012;SDS011;52783;50.502;8.190;2022-07-15T09:31:32;2.15;;;1.45;;
66012;SDS011;52783;50.502;8.190;2022-07-15T09:34:19;3.40;;;1.50;;
66012;SDS011;52783;50.502;8.190;2022-07-15T09:36:46;5.82;;;1.77;;
66012;SDS011;52783;50.502;8.190;2022-07-15T09:39:18;2.58;;;1.55;;
66012;SDS011;52783;50.502;8.190;2022-07-15T09:41:45;3.08;;;1.55;;
66012;SDS011;52783;50.502;8.190;2022-07-15T09:44:12;3.80;;;1.77;;
66012;SDS011;52783;50.502;8.190;2022-07-15T09:46:52;4.82;;;1.55;;
66012;SDS011;52783;50.502;8.190;2022-07-15T09:54:25;2.25;;;1.42;;
66012;SDS011;52783;50.502;8.190;2022-07-15T09:56:56;4.00;;;1.60;;
66012;SDS011;52783;50.502;8.190;2022-07-15T09:59:23;4.65;;;1.48;;
66012;SDS011;52783;50.502;8.190;2022-07-15T10:01:49;2.50;;;1.65;;
66012;SDS011;52783;50.502;8.190;2022-07-15T10:04:17;1.52;;;1.40;;
66012;SDS011;52783;50.502;8.190;2022-07-15T10:06:44;3.17;;;1.50;;
66012;SDS011;52783;50.502;8.190;2022-07-15T10:09:12;3.42;;;1.48;;
66012;SDS011;52783;50.502;8.190;2022-07-15T10:11:38;3.78;;;1.48;;
66012;SDS011;52783;50.502;8.190;2022-07-15T10:17:20;4.82;;;1.58;;
66012;SDS011;52783;50.502;8.190;2022-07-15T10:22:56;2.33;;;1.20;;
66012;SDS011;52783;50.502;8.190;2022-07-15T10:28:51;3.00;;;1.63;;
66012;SDS011;52783;50.502;8.190;2022-07-15T10:31:26;5.40;;;1.50;;
66012;SDS011;52783;50.502;8.190;2022-07-15T10:39:16;1.60;;;1.33;;
66012;SDS011;52783;50.502;8.190;2022-07-15T10:44:29;3.78;;;1.50;;
66012;SDS011;52783;50.502;8.190;2022-07-15T10:47:16;3.03;;;1.60;;
66012;SDS011;52783;50.502;8.190;2022-07-15T10:49:43;2.53;;;1.40;;
66012;SDS011;52783;50.502;8.190;2022-07-15T10:52:16;3.25;;;1.27;;
66012;SDS011;52783;50.502;8.190;2022-07-15T10:54:50;7.05;;;1.10;;
66012;SDS011;52783;50.502;8.190;2022-07-15T11:00:06;18.42;;;2.60;;
66012;SDS011;52783;50.502;8.190;2022-07-15T11:13:38;4.88;;;1.42;;
66012;SDS011;52783;50.502;8.190;2022-07-15T11:16:04;5.45;;;1.60;;
66012;SDS011;52783;50.502;8.190;2022-07-15T11:18:43;11.15;;;2.15;;
66012;SDS011;52783;50.502;8.190;2022-07-15T11:21:20;9.20;;;1.58;;
66012;SDS011;52783;50.502;8.190;2022-07-15T11:23:47;6.38;;;1.85;;
66012;SDS011;52783;50.502;8.190;2022-07-15T11:26:14;3.95;;;1.92;;
66012;SDS011;52783;50.502;8.190;2022-07-15T11:28:53;4.90;;;1.73;;
66012;SDS011;52783;50.502;8.190;2022-07-15T11:31:20;4.18;;;1.80;;
66012;SDS011;52783;50.502;8.190;2022-07-15T11:33:47;11.55;;;2.25;;
66012;SDS011;52783;50.502;8.190;2022-07-15T11:36:18;5.05;;;1.83;;
66012;SDS011;52783;50.502;8.190;2022-07-15T11:38:46;10.20;;;2.53;;
66012;SDS011;52783;50.502;8.190;2022-07-15T11:41:12;26.15;;;2.65;;
66012;SDS011;52783;50.502;8.190;2022-07-15T11:43:57;2.47;;;1.30;;
66012;SDS011;52783;50.502;8.190;2022-07-15T11:46:42;3.15;;;1.55;;
66012;SDS011;52783;50.502;8.190;2022-07-15T11:49:10;2.55;;;1.60;;
66012;SDS011;52783;50.502;8.190;2022-07-15T11:51:35;6.15;;;2.08;;
66012;SDS011;52783;50.502;8.190;2022-07-15T11:54:01;4.95;;;1.42;;
66012;SDS011;52783;50.502;8.190;2022-07-15T11:56:27;2.67;;;1.10;;
66012;SDS011;52783;50.502;8.190;2022-07-15T11:58:54;3.05;;;1.25;;
66012;SDS011;52783;50.502;8.190;2022-07-15T12:01:22;2.53;;;1.27;;
66012;SDS011;52783;50.502;8.190;2022-07-15T12:03:50;4.82;;;1.30;;
66012;SDS011;52783;50.502;8.190;2022-07-15T12:08:48;2.20;;;1.45;;
66012;SDS011;52783;50.502;8.190;2022-07-15T12:11:22;6.70;;;1.55;;
66012;SDS011;52783;50.502;8.190;2022-07-15T12:13:52;3.08;;;1.58;;
66012;SDS011;52783;50.502;8.190;2022-07-15T12:16:27;2.97;;;1.50;;
66012;SDS011;52783;50.502;8.190;2022-07-15T12:19:06;6.32;;;1.70;;
66012;SDS011;52783;50.502;8.190;2022-07-15T12:21:37;7.22;;;1.50;;
66012;SDS011;52783;50.502;8.190;2022-07-15T12:24:10;6.38;;;1.70;;
66012;SDS011;52783;50.502;8.190;2022-07-15T12:26:39;3.00;;;1.25;;
66012;SDS011;52783;50.502;8.190;2022-07-15T12:29:08;3.53;;;1.75;;
66012;SDS011;52783;50.502;8.190;2022-07-15T12:31:35;3.83;;;1.67;;
66012;SDS011;52783;50.502;8.190;2022-07-15T12:34:03;2.88;;;1.50;;
66012;SDS011;52783;50.502;8.190;2022-07-15T12:36:30;2.97;;;1.23;;
66012;SDS011;52783;50.502;8.190;2022-07-15T12:39:06;3.75;;;1.50;;
66012;SDS011;52783;50.502;8.190;2022-07-15T12:41:35;2.95;;;1.38;;
66012;SDS011;52783;50.502;8.190;2022-07-15T12:44:02;2.30;;;1.48;;
66012;SDS011;52783;50.502;8.190;2022-07-15T12:46:50;3.00;;;1.48;;
66012;SDS011;52783;50.502;8.190;2022-07-15T12:49:38;2.05;;;1.50;;
66012;SDS011;52783;50.502;8.190;2022-07-15T12:55:18;2.15;;;1.40;;
66012;SDS011;52783;50.502;8.190;2022-07-15T12:57:48;4.00;;;1.45;;
66012;SDS011;52783;50.502;8.190;2022-07-15T13:00:15;6.72;;;1.70;;
66012;SDS011;52783;50.502;8.190;2022-07-15T13:05:30;4.55;;;1.85;;
66012;SDS011;52783;50.502;8.190;2022-07-15T13:07:57;6.63;;;2.00;;
66012;SDS011;52783;50.502;8.190;2022-07-15T13:10:23;2.33;;;1.45;;
66012;SDS011;52783;50.502;8.190;2022-07-15T13:12:49;3.72;;;1.67;;
66012;SDS011;52783;50.502;8.190;2022-07-15T13:15:15;3.45;;;1.33;;
66012;SDS011;52783;50.502;8.190;2022-07-15T13:17:40;2.90;;;1.50;;
66012;SDS011;52783;50.502;8.190;2022-07-15T13:20:06;5.00;;;1.60;;
66012;SDS011;52783;50.502;8.190;2022-07-15T13:22:32;5.25;;;1.80;;
66012;SDS011;52783;50.502;8.190;2022-07-15T13:24:58;5.90;;;1.45;;
66012;SDS011;52783;50.502;8.190;2022-07-15T13:27:24;10.85;;;1.88;;
66012;SDS011;52783;50.502;8.190;2022-07-15T13:29:50;2.78;;;1.50;;
66012;SDS011;52783;50.502;8.190;2022-07-15T13:32:16;5.72;;;1.60;;
66012;SDS011;52783;50.502;8.190;2022-07-15T13:34:41;3.75;;;1.67;;
66012;SDS011;52783;50.502;8.190;2022-07-15T13:37:07;5.47;;;1.80;;
66012;SDS011;52783;50.502;8.190;2022-07-15T13:39:33;2.90;;;1.60;;
66012;SDS011;52783;50.502;8.190;2022-07-15T13:41:58;5.85;;;1.60;;
66012;SDS011;52783;50.502;8.190;2022-07-15T13:44:24;3.90;;;1.58;;
66012;SDS011;52783;50.502;8.190;2022-07-15T13:46:50;2.83;;;1.65;;
66012;SDS011;52783;50.502;8.190;2022-07-15T13:49:15;5.88;;;1.90;;
66012;SDS011;52783;50.502;8.190;2022-07-15T13:51:41;3.45;;;1.83;;
66012;SDS011;52783;50.502;8.190;2022-07-15T13:54:06;2.75;;;1.58;;
66012;SDS011;52783;50.502;8.190;2022-07-15T13:56:33;7.30;;;1.83;;
66012;SDS011;52783;50.502;8.190;2022-07-15T13:58:59;4.07;;;1.70;;
66012;SDS011;52783;50.502;8.190;2022-07-15T14:01:26;6.07;;;2.13;;
66012;SDS011;52783;50.502;8.190;2022-07-15T14:03:55;4.70;;;1.67;;
66012;SDS011;52783;50.502;8.190;2022-07-15T14:06:21;2.75;;;1.35;;
66012;SDS011;52783;50.502;8.190;2022-07-15T14:08:46;6.85;;;1.77;;
66012;SDS011;52783;50.502;8.190;2022-07-15T14:11:12;3.40;;;1.45;;
66012;SDS011;52783;50.502;8.190;2022-07-15T14:13:37;3.40;;;1.75;;
66012;SDS011;52783;50.502;8.190;2022-07-15T14:16:03;3.33;;;1.77;;
66012;SDS011;52783;50.502;8.190;2022-07-15T14:18:29;3.55;;;1.60;;
66012;SDS011;52783;50.502;8.190;2022-07-15T14:21:15;2.20;;;1.48;;
66012;SDS011;52783;50.502;8.190;2022-07-15T14:23:42;3.50;;;1.67;;
66012;SDS011;52783;50.502;8.190;2022-07-15T14:26:08;5.15;;;1.95;;
66012;SDS011;52783;50.502;8.190;2022-07-15T14:28:35;4.45;;;1.60;;
66012;SDS011;52783;50.502;8.190;2022-07-15T14:31:01;3.40;;;1.40;;
66012;SDS011;52783;50.502;8.190;2022-07-15T14:33:26;7.20;;;1.58;;
66012;SDS011;52783;50.502;8.190;2022-07-15T14:35:52;1.50;;;0.98;;
66012;SDS011;52783;50.502;8.190;2022-07-15T14:38:17;4.20;;;1.60;;
66012;SDS011;52783;50.502;8.190;2022-07-15T14:40:43;3.88;;;1.40;;
66012;SDS011;52783;50.502;8.190;2022-07-15T14:43:09;5.57;;;2.00;;
66012;SDS011;52783;50.502;8.190;2022-07-15T14:45:34;5.40;;;1.60;;
66012;SDS011;52783;50.502;8.190;2022-07-15T14:48:00;2.40;;;1.55;;
66012;SDS011;52783;50.502;8.190;2022-07-15T14:50:25;3.53;;;1.40;;
66012;SDS011;52783;50.502;8.190;2022-07-15T14:52:51;2.28;;;1.58;;
66012;SDS011;52783;50.502;8.190;2022-07-15T14:55:16;4.20;;;1.63;;
66012;SDS011;52783;50.502;8.190;2022-07-15T14:57:42;3.47;;;1.75;;
66012;SDS011;52783;50.502;8.190;2022-07-15T15:00:07;2.95;;;1.13;;
66012;SDS011;52783;50.502;8.190;2022-07-15T15:02:34;3.70;;;1.38;;
66012;SDS011;52783;50.502;8.190;2022-07-15T15:04:59;2.90;;;1.27;;
66012;SDS011;52783;50.502;8.190;2022-07-15T15:07:25;3.70;;;1.70;;
66012;SDS011;52783;50.502;8.190;2022-07-15T15:09:50;2.75;;;1.60;;
66012;SDS011;52783;50.502;8.190;2022-07-15T15:12:16;7.63;;;1.80;;
66012;SDS011;52783;50.502;8.190;2022-07-15T15:14:41;6.70;;;1.73;;
66012;SDS011;52783;50.502;8.190;2022-07-15T15:17:07;6.20;;;1.50;;
66012;SDS011;52783;50.502;8.190;2022-07-15T15:19:33;5.72;;;1.50;;
66012;SDS011;52783;50.502;8.190;2022-07-15T15:21:59;3.47;;;1.60;;
66012;SDS011;52783;50.502;8.190;2022-07-15T15:24:25;2.92;;;1.40;;
66012;SDS011;52783;50.502;8.190;2022-07-15T15:26:51;3.22;;;1.52;;
66012;SDS011;52783;50.502;8.190;2022-07-15T15:29:17;2.95;;;1.52;;
66012;SDS011;52783;50.502;8.190;2022-07-15T15:31:43;4.70;;;1.58;;